Time;durP1;ratioP1;P1;durP2;ratioP2;P2;SDS_P1;SDS_P2;PMS_P1;PMS_P2;Temp;Humidity;BMP_temperature;BMP_pressure;BME280_temperature;BME280_humidity;BME280_pressure;Samples;Min_cycle;Max_cycle;Signal;HPM_P1;HPM_P2
2022/06/15 00:01:44;;;;;;;10.95;7.32;;;;;;;15.99;50.61;100760.13;5008751;28;97528;-81
2022/06/15 00:04:10;;;;;;;8.57;6.75;;;;;;;16.00;50.87;100763.66;5005930;28;97464;-86
2022/06/15 00:06:41;;;;;;;8.20;6.75;;;;;;;16.07;50.84;100770.34;5005803;28;97264;-82
2022/06/15 00:09:07;;;;;;;10.30;6.82;;;;;;;16.00;51.04;100771.59;5012719;28;98149;-83
2022/06/15 00:11:39;;;;;;;9.98;7.18;;;;;;;16.01;51.18;100783.91;5006849;28;101131;-83
2022/06/15 00:14:19;;;;;;;7.78;6.50;;;;;;;15.95;51.33;100773.63;5016516;28;96814;-84
2022/06/15 00:16:45;;;;;;;7.68;6.93;;;;;;;15.83;51.25;100740.66;5027850;28;97537;-82
2022/06/15 00:19:10;;;;;;;9.02;6.88;;;;;;;15.89;51.15;100768.63;4995009;28;101738;-81
2022/06/15 00:21:36;;;;;;;7.60;6.85;;;;;;;15.78;51.18;100742.66;5012776;28;101232;-82
2022/06/15 00:24:02;;;;;;;9.52;6.93;;;;;;;15.87;51.24;100766.03;5009371;28;96765;-82
2022/06/15 00:26:28;;;;;;;10.10;6.97;;;;;;;15.75;51.26;100737.53;5008001;28;97348;-82
2022/06/15 00:28:54;;;;;;;7.30;6.57;;;;;;;15.83;51.73;100767.97;5015598;28;101303;-83
2022/06/15 00:31:20;;;;;;;10.07;7.03;;;;;;;15.77;51.63;100759.50;4997554;28;102297;-82
2022/06/15 00:33:46;;;;;;;7.63;6.90;;;;;;;15.63;51.85;100747.75;5009831;28;96862;-82
2022/06/15 00:36:13;;;;;;;6.75;6.15;;;;;;;15.62;51.67;100745.19;5009609;28;96844;-81
2022/06/15 00:38:42;;;;;;;12.80;7.40;;;;;;;15.73;51.75;100772.00;5001837;28;101554;-82
2022/06/15 00:41:11;;;;;;;8.05;6.43;;;;;;;15.78;51.75;100769.13;5008017;28;100306;-82
2022/06/15 00:43:41;;;;;;;11.18;7.13;;;;;;;15.63;51.88;100747.75;5003521;28;96781;-82
2022/06/15 00:46:18;;;;;;;8.98;7.57;;;;;;;15.68;52.06;100759.91;5032350;28;97421;-82
2022/06/15 00:48:45;;;;;;;7.75;6.88;;;;;;;15.59;52.14;100762.06;5032260;28;101157;-82
2022/06/15 00:51:11;;;;;;;11.82;7.47;;;;;;;15.39;52.28;100743.63;4999027;28;101321;-82
2022/06/15 00:53:37;;;;;;;8.02;7.30;;;;;;;15.50;52.67;100769.56;5032859;28;96850;-82
2022/06/15 00:56:03;;;;;;;8.40;7.05;;;;;;;15.48;52.67;100760.84;5012338;28;96880;-81
2022/06/15 00:58:28;;;;;;;7.22;6.53;;;;;;;15.42;52.42;100767.28;5011986;28;101614;-82
2022/06/15 01:00:56;;;;;;;9.02;7.05;;;;;;;15.40;52.76;100755.91;4999016;28;101176;-82
2022/06/15 01:03:22;;;;;;;7.55;6.70;;;;;;;15.40;53.09;100764.69;5006743;28;96843;-83
2022/06/15 01:06:14;;;;;;;9.32;7.72;;;;;;;15.41;52.88;100760.25;5015512;28;97444;-81
2022/06/15 01:09:04;;;;;;;7.97;7.22;;;;;;;15.31;52.98;100762.50;5052963;27;97555;-83
2022/06/15 01:11:50;;;;;;;11.80;7.13;;;;;;;15.20;53.17;100750.69;5015078;28;101364;-81
2022/06/15 01:14:43;;;;;;;9.45;7.63;;;;;;;15.21;53.57;100768.28;5033306;28;96745;-82
2022/06/15 01:17:35;;;;;;;10.27;7.00;;;;;;;15.23;53.48;100761.13;5025677;28;97073;-86
2022/06/15 01:20:19;;;;;;;8.13;6.68;;;;;;;15.18;53.58;100758.69;5021559;28;98642;-82
2022/06/15 01:23:20;;;;;;;9.60;7.25;;;;;;;15.10;53.78;100759.06;5031036;28;98477;-83
2022/06/15 01:25:48;;;;;;;7.93;7.13;;;;;;;15.05;54.17;100762.84;5006281;28;97180;-83
2022/06/15 01:28:23;;;;;;;8.95;7.30;;;;;;;14.88;54.17;100735.38;5001631;28;97075;-82
2022/06/15 01:30:54;;;;;;;7.35;6.65;;;;;;;14.92;54.67;100760.75;5032306;28;101285;-82
2022/06/15 01:33:52;;;;;;;8.45;7.65;;;;;;;14.90;54.53;100759.09;4992284;28;101284;-82
2022/06/15 01:36:17;;;;;;;10.02;6.85;;;;;;;14.87;54.28;100744.25;4970205;28;97232;-84
2022/06/15 01:39:18;;;;;;;8.68;7.78;;;;;;;14.94;54.51;100750.94;5015423;28;96845;-83
2022/06/15 01:41:50;;;;;;;13.05;8.75;;;;;;;14.83;54.54;100737.38;5033642;28;98701;-82
2022/06/15 01:44:24;;;;;;;8.52;7.22;;;;;;;14.87;54.84;100770.69;5009364;28;98501;-82
2022/06/15 01:46:49;;;;;;;8.50;7.50;;;;;;;14.82;54.96;100754.16;4998031;28;97488;-82
2022/06/15 01:49:25;;;;;;;10.63;7.90;;;;;;;14.69;55.12;100737.16;4989621;28;96921;-82
2022/06/15 01:51:50;;;;;;;9.27;7.63;;;;;;;14.79;54.77;100758.72;5013513;28;100253;-82
2022/06/15 01:54:31;;;;;;;14.07;7.60;;;;;;;14.71;55.22;100733.47;5005541;28;101216;-83
2022/06/15 01:56:58;;;;;;;9.63;7.70;;;;;;;14.66;54.96;100739.91;5010554;28;96870;-83
2022/06/15 01:59:40;;;;;;;8.80;6.88;;;;;;;14.67;55.25;100750.41;4978515;28;96879;-82
2022/06/15 02:02:32;;;;;;;12.93;7.55;;;;;;;14.70;55.37;100752.06;5009969;28;101759;-84
2022/06/15 02:05:05;;;;;;;13.02;7.40;;;;;;;14.64;55.26;100752.34;5002595;28;101410;-83
2022/06/15 02:07:39;;;;;;;8.70;7.03;;;;;;;14.70;55.44;100762.63;4998209;28;96873;-82
2022/06/15 02:10:20;;;;;;;9.02;7.00;;;;;;;14.54;55.85;100746.59;5014214;28;97298;-85
2022/06/15 02:13:23;;;;;;;12.02;7.82;;;;;;;14.61;55.33;100763.03;4994235;28;101669;-82
2022/06/15 02:15:54;;;;;;;11.07;7.75;;;;;;;14.49;55.45;100740.63;5017057;28;98949;-83
2022/06/15 02:18:24;;;;;;;14.15;7.45;;;;;;;14.35;55.99;100730.66;4998595;28;96823;-82
2022/06/15 02:20:57;;;;;;;14.23;8.10;;;;;;;14.44;56.06;100754.03;4996312;28;97074;-83
2022/06/15 02:23:23;;;;;;;12.63;7.20;;;;;;;14.48;55.77;100763.53;5012080;28;101222;-83
2022/06/15 02:25:50;;;;;;;8.48;7.25;;;;;;;14.49;55.65;100752.06;4991631;28;101170;-83
2022/06/15 02:28:17;;;;;;;10.65;7.13;;;;;;;14.40;55.84;100733.13;5013647;28;96825;-83
2022/06/15 02:30:45;;;;;;;11.25;7.72;;;;;;;14.43;55.45;100744.41;4996880;28;96912;-82
2022/06/15 02:33:32;;;;;;;11.70;6.93;;;;;;;14.22;55.87;100705.69;4996636;28;101328;-83
2022/06/15 02:36:01;;;;;;;8.48;7.57;;;;;;;14.37;55.78;100742.03;5014071;28;101536;-83
2022/06/15 02:38:29;;;;;;;9.88;7.40;;;;;;;14.38;55.98;100764.84;4998139;28;97285;-83
2022/06/15 02:40:55;;;;;;;9.10;7.85;;;;;;;14.33;55.94;100744.84;5014758;28;96934;-82
2022/06/15 02:43:24;;;;;;;10.00;8.27;;;;;;;14.37;56.09;100756.97;4997091;28;101942;-82
2022/06/15 02:45:51;;;;;;;11.15;7.80;;;;;;;14.44;56.05;100758.47;5014222;28;101318;-83
2022/06/15 02:48:20;;;;;;;10.15;8.32;;;;;;;14.32;56.02;100745.78;4998153;28;97314;-82
2022/06/15 02:51:24;;;;;;;10.80;7.93;;;;;;;14.31;56.13;100749.31;5014567;28;96921;-84
2022/06/15 02:54:03;;;;;;;9.75;7.55;;;;;;;14.22;56.44;100754.09;5001376;27;101144;-82
2022/06/15 02:56:31;;;;;;;12.32;8.57;;;;;;;14.18;56.46;100751.66;4995371;28;101953;-83
2022/06/15 02:58:57;;;;;;;10.13;8.32;;;;;;;14.15;56.45;100760.53;4994312;28;97224;-82
2022/06/15 03:01:25;;;;;;;13.38;8.80;;;;;;;13.92;56.77;100731.63;5011680;28;96931;-83
2022/06/15 03:03:50;;;;;;;14.35;8.20;;;;;;;14.09;56.95;100758.16;5013589;28;98249;-83
2022/06/15 03:06:27;;;;;;;10.50;7.75;;;;;;;14.07;57.05;100760.00;5027729;28;101847;-83
2022/06/15 03:08:56;;;;;;;10.52;8.93;;;;;;;13.95;56.75;100744.69;5014774;28;96794;-82
2022/06/15 03:11:28;;;;;;;12.85;8.70;;;;;;;13.90;57.43;100728.16;5015146;28;96865;-82
2022/06/15 03:13:59;;;;;;;13.43;7.80;;;;;;;14.13;57.33;100766.81;4993186;28;102214;-82
2022/06/15 03:16:25;;;;;;;17.77;9.65;;;;;;;14.18;57.02;100765.69;5011086;28;101249;-82
2022/06/15 03:18:51;;;;;;;10.55;8.68;;;;;;;14.21;56.95;100776.13;5007394;28;96819;-82
2022/06/15 03:21:17;;;;;;;13.00;9.10;;;;;;;14.31;56.71;100776.63;4996946;28;97104;-82
2022/06/15 03:23:43;;;;;;;12.00;8.35;;;;;;;14.12;56.58;100731.63;5013236;28;101645;-82
2022/06/15 03:26:11;;;;;;;17.75;9.25;;;;;;;14.34;56.16;100773.84;5012393;28;101483;-83
2022/06/15 03:28:38;;;;;;;13.10;9.27;;;;;;;14.36;56.34;100761.41;5010375;28;97222;-82
2022/06/15 03:31:07;;;;;;;9.52;8.55;;;;;;;14.46;55.92;100762.75;4995930;28;96897;-82
2022/06/15 03:33:33;;;;;;;9.38;7.97;;;;;;;14.49;55.83;100762.63;5013815;28;99722;-82
2022/06/15 03:36:04;;;;;;;10.63;8.82;;;;;;;14.64;56.05;100770.84;5016840;28;101648;-83
2022/06/15 03:38:31;;;;;;;11.45;7.95;;;;;;;14.46;55.77;100728.41;5012176;28;96778;-82
2022/06/15 03:41:10;;;;;;;10.90;8.18;;;;;;;14.66;55.71;100750.47;4999103;28;96966;-82
2022/06/15 03:43:36;;;;;;;13.43;8.95;;;;;;;14.77;55.58;100766.72;4999354;28;101073;-83
2022/06/15 03:46:01;;;;;;;11.27;9.25;;;;;;;14.93;55.70;100774.84;4996368;28;101677;-85
2022/06/15 03:48:32;;;;;;;9.88;8.63;;;;;;;15.02;55.78;100774.41;5017322;28;97868;-83
2022/06/15 03:50:57;;;;;;;13.35;9.93;;;;;;;15.10;55.40;100772.28;4992736;28;96863;-82
2022/06/15 03:53:24;;;;;;;10.45;8.60;;;;;;;15.11;55.38;100771.34;5009118;28;101421;-82
2022/06/15 03:55:50;;;;;;;9.18;8.27;;;;;;;15.05;55.46;100745.19;5015112;28;101156;-83
2022/06/15 03:58:20;;;;;;;14.55;9.32;;;;;;;15.10;55.66;100751.13;5016555;28;96845;-83
2022/06/15 04:00:49;;;;;;;11.93;9.10;;;;;;;15.16;55.44;100753.50;5001578;28;96934;-83
2022/06/15 04:03:17;;;;;;;10.93;9.23;;;;;;;15.32;55.26;100779.22;5015705;28;102315;-83
2022/06/15 04:05:56;;;;;;;11.27;9.98;;;;;;;15.22;55.35;100760.28;5018045;28;101048;-83
2022/06/15 04:08:37;;;;;;;13.98;9.60;;;;;;;15.39;55.55;100778.88;4998565;28;96818;-83
2022/06/15 04:11:58;;;;;;;16.95;9.65;;;;;;;15.40;55.29;100769.13;5018103;28;97198;-82
2022/06/15 04:14:05;;;;;;;11.97;10.27;;;;;;;15.47;55.05;100781.13;5018536;28;101789;-82
2022/06/15 04:16:34;;;;;;;18.08;10.18;;;;;;;15.44;55.11;100761.91;5013033;28;101364;-83
2022/06/15 04:19:02;;;;;;;10.15;9.25;;;;;;;15.56;55.00;100783.38;4989129;28;97121;-83
2022/06/15 04:21:28;;;;;;;10.75;9.65;;;;;;;15.56;54.89;100756.03;5017130;28;96929;-82
2022/06/15 04:23:55;;;;;;;12.48;10.25;;;;;;;15.50;55.11;100751.88;5015859;28;101720;-82
2022/06/15 04:26:21;;;;;;;10.77;9.68;;;;;;;15.61;55.30;100773.41;5033258;28;98428;-82
2022/06/15 04:28:48;;;;;;;16.00;9.50;;;;;;;15.60;54.67;100758.47;5016208;28;97164;-83
2022/06/15 04:31:18;;;;;;;13.85;10.30;;;;;;;15.55;54.95;100749.03;5016726;28;97277;-83
2022/06/15 04:33:44;;;;;;;13.60;10.65;;;;;;;15.84;54.86;100774.13;4998789;28;101631;-82
2022/06/15 04:36:12;;;;;;;12.10;10.43;;;;;;;15.95;54.79;100786.84;4998776;28;101538;-83
2022/06/15 04:38:40;;;;;;;13.45;10.25;;;;;;;15.74;54.38;100749.06;5011650;28;96873;-84
2022/06/15 04:41:07;;;;;;;11.20;10.15;;;;;;;16.08;54.28;100785.28;5007889;28;97002;-82
2022/06/15 04:43:33;;;;;;;10.88;9.88;;;;;;;16.09;54.05;100770.28;4999610;28;100990;-82
2022/06/15 04:45:58;;;;;;;13.27;9.35;;;;;;;16.22;54.01;100774.03;5007660;28;101362;-82
2022/06/15 04:48:25;;;;;;;12.13;10.25;;;;;;;16.26;53.45;100752.63;5007238;28;96748;-83
2022/06/15 04:50:53;;;;;;;12.35;9.93;;;;;;;16.62;53.46;100786.09;4996055;28;97400;-83
2022/06/15 04:53:21;;;;;;;11.27;10.18;;;;;;;16.71;52.87;100776.81;5003826;28;101025;-83
2022/06/15 04:55:50;;;;;;;12.80;10.55;;;;;;;16.57;52.95;100744.88;4995998;28;101843;-83
2022/06/15 04:58:16;;;;;;;17.00;10.98;;;;;;;16.73;52.11;100743.97;5026068;28;96794;-82
2022/06/15 05:00:42;;;;;;;15.77;9.85;;;;;;;16.89;51.86;100759.09;4996005;28;97744;-82
2022/06/15 05:03:10;;;;;;;16.67;9.48;;;;;;;17.08;51.86;100759.84;5002174;28;101604;-82
2022/06/15 05:05:36;;;;;;;17.75;10.10;;;;;;;17.29;51.16;100760.44;4987870;28;101130;-83
2022/06/15 05:08:05;;;;;;;9.82;8.93;;;;;;;17.47;50.58;100771.00;4999620;28;97434;-86
2022/06/15 05:10:31;;;;;;;10.93;9.05;;;;;;;17.56;50.03;100767.81;4999607;28;96939;-85
2022/06/15 05:12:57;;;;;;;10.38;9.27;;;;;;;17.68;49.86;100769.78;5008274;28;101419;-84
2022/06/15 05:15:25;;;;;;;11.98;9.80;;;;;;;17.73;50.07;100775.69;5011953;28;101315;-84
2022/06/15 05:18:01;;;;;;;17.57;9.20;;;;;;;17.68;50.63;100750.34;5012556;28;97316;-88
2022/06/15 05:20:26;;;;;;;;;;;;;;;17.94;50.45;100770.97;5000129;28;96805;-85
2022/06/15 05:22:53;;;;;;;12.48;8.93;;;;;;;18.01;50.08;100747.59;4998969;28;100157;-86
2022/06/15 05:25:23;;;;;;;11.02;9.43;;;;;;;18.24;48.92;100773.66;4999724;28;102402;-84
2022/06/15 05:27:49;;;;;;;13.38;9.50;;;;;;;18.43;48.60;100783.19;4996894;28;96808;-80
2022/06/15 05:30:16;;;;;;;12.55;9.68;;;;;;;18.51;48.66;100781.78;5014836;28;96874;-81
2022/06/15 05:32:41;;;;;;;9.98;8.82;;;;;;;18.64;48.72;100773.94;5014297;28;100992;-80
2022/06/15 05:35:07;;;;;;;14.70;10.85;;;;;;;18.72;47.96;100784.09;4994577;28;101069;-81
2022/06/15 05:37:33;;;;;;;12.40;9.18;;;;;;;18.88;48.06;100784.03;5011963;28;97289;-81
2022/06/15 05:39:59;;;;;;;12.02;9.20;;;;;;;18.81;47.50;100735.72;5015641;28;97289;-81
2022/06/15 05:42:28;;;;;;;12.70;9.27;;;;;;;19.01;46.86;100777.03;5011133;28;101442;-80
2022/06/15 05:45:05;;;;;;;17.40;9.32;;;;;;;19.20;46.25;100772.28;5014916;28;99303;-87
2022/06/15 05:47:31;;;;;;;11.30;9.25;;;;;;;19.26;46.40;100754.19;4998509;28;96853;-84
2022/06/15 05:50:13;;;;;;;10.50;9.38;;;;;;;19.47;46.58;100752.84;4999103;28;97393;-82
2022/06/15 05:52:45;;;;;;;9.60;8.63;;;;;;;19.67;46.15;100764.91;5011880;28;100875;-82
2022/06/15 05:55:11;;;;;;;10.73;9.10;;;;;;;19.87;45.81;100764.47;4995356;28;101389;-82
2022/06/15 05:57:37;;;;;;;10.80;8.20;;;;;;;20.00;45.17;100748.50;4989672;28;96929;-82
2022/06/15 06:00:05;;;;;;;9.45;8.43;;;;;;;20.17;44.21;100752.69;5023867;28;97998;-83
2022/06/15 06:02:40;;;;;;;9.80;8.35;;;;;;;19.98;43.54;100762.88;4999328;28;98050;-82
2022/06/15 06:05:06;;;;;;;10.40;9.02;;;;;;;20.28;43.65;100760.84;5002793;28;101195;-82
2022/06/15 06:07:31;;;;;;;8.93;8.20;;;;;;;20.74;42.72;100743.50;5028988;28;96702;-82
2022/06/15 06:09:57;;;;;;;9.75;8.77;;;;;;;21.32;41.06;100754.53;5006867;28;97004;-82
2022/06/15 06:12:22;;;;;;;12.77;9.07;;;;;;;21.70;40.15;100762.47;4998233;28;101321;-82
2022/06/15 06:14:50;;;;;;;10.00;9.10;;;;;;;21.95;39.32;100747.28;5003548;28;101670;-82
2022/06/15 06:17:16;;;;;;;9.80;8.80;;;;;;;22.77;38.60;100767.69;5020685;28;96778;-82
2022/06/15 06:19:41;;;;;;;14.85;9.32;;;;;;;23.25;37.07;100762.16;5029289;28;98488;-82
2022/06/15 06:22:07;;;;;;;9.27;8.48;;;;;;;23.34;36.38;100727.56;5014589;28;98297;-83
2022/06/15 06:24:32;;;;;;;11.15;9.52;;;;;;;23.99;35.26;100753.44;5013666;28;101290;-82
2022/06/15 06:27:04;;;;;;;12.30;9.07;;;;;;;24.00;35.19;100762.34;5014096;28;96741;-82
2022/06/15 06:29:30;;;;;;;14.18;9.40;;;;;;;24.26;34.97;100760.16;5012597;28;96880;-82
2022/06/15 06:31:59;;;;;;;12.23;9.57;;;;;;;24.81;35.16;100755.44;5014087;28;101501;-80
2022/06/15 06:34:27;;;;;;;16.17;9.63;;;;;;;25.29;34.13;100765.59;5011114;28;101521;-80
2022/06/15 06:36:52;;;;;;;10.93;9.40;;;;;;;25.55;32.95;100757.88;4996786;28;97129;-85
2022/06/15 06:39:20;;;;;;;10.15;9.15;;;;;;;25.84;33.17;100738.28;5010177;28;97033;-84
2022/06/15 06:41:46;;;;;;;12.60;9.18;;;;;;;26.19;32.05;100760.06;4997176;28;101342;-86
2022/06/15 06:44:11;;;;;;;10.43;9.35;;;;;;;26.01;32.54;100737.56;5005626;28;97415;-84
2022/06/15 06:46:40;;;;;;;13.23;9.52;;;;;;;26.48;31.80;100761.88;5010442;28;98178;-84
2022/06/15 06:49:06;;;;;;;11.32;9.10;;;;;;;26.76;31.58;100754.75;4997802;28;97354;-84
2022/06/15 06:51:34;;;;;;;11.75;9.50;;;;;;;27.00;30.80;100762.31;4995390;28;101087;-85
2022/06/15 06:53:59;;;;;;;10.13;9.30;;;;;;;27.17;30.70;100757.16;5015549;28;97806;-85
2022/06/15 06:56:25;;;;;;;11.30;9.45;;;;;;;27.24;30.26;100756.41;5005382;28;97398;-85
2022/06/15 06:58:50;;;;;;;10.27;9.27;;;;;;;27.48;30.46;100749.63;4997378;28;97073;-84
2022/06/15 07:01:16;;;;;;;11.35;10.30;;;;;;;27.83;29.75;100753.38;4995920;28;101444;-84
2022/06/15 07:03:41;;;;;;;12.10;11.10;;;;;;;28.19;29.39;100748.81;5016168;28;97494;-83
2022/06/15 07:06:08;;;;;;;11.73;10.60;;;;;;;28.49;29.65;100749.41;5013135;28;96979;-84
2022/06/15 07:08:36;;;;;;;10.73;9.60;;;;;;;28.08;28.38;100743.66;5012613;28;97014;-84
2022/06/15 07:11:10;;;;;;;10.95;9.25;;;;;;;28.34;28.39;100732.91;5029232;28;97367;-83
2022/06/15 07:13:36;;;;;;;9.80;8.88;;;;;;;28.27;28.08;100745.31;5031609;28;98070;-83
2022/06/15 07:16:06;;;;;;;9.65;8.75;;;;;;;28.57;26.86;100747.63;5016404;28;96762;-82
2022/06/15 07:18:32;;;;;;;20.45;10.65;;;;;;;28.29;26.79;100730.69;5017492;28;96930;-91
2022/06/15 07:21:06;;;;;;;10.63;9.70;;;;;;;28.45;26.81;100738.09;5011735;28;100026;-83
2022/06/15 07:23:32;;;;;;;10.93;10.05;;;;;;;28.73;27.35;100710.91;5018013;28;97948;-83
2022/06/15 07:25:57;;;;;;;10.90;9.65;;;;;;;28.98;27.05;100736.19;5018292;28;97152;-83
2022/06/15 07:28:23;;;;;;;10.88;9.85;;;;;;;29.14;26.67;100741.69;5018121;28;98461;-83
2022/06/15 07:30:48;;;;;;;11.05;10.02;;;;;;;29.44;26.46;100743.00;5017188;28;97635;-82
2022/06/15 07:33:15;;;;;;;11.32;10.43;;;;;;;29.28;26.07;100743.78;5006035;28;98038;-86
2022/06/15 07:35:41;;;;;;;11.88;10.75;;;;;;;29.65;26.16;100733.59;5005262;28;96898;-85
2022/06/15 07:38:06;;;;;;;13.20;9.90;;;;;;;30.08;27.07;100734.28;5010011;28;96788;-83
2022/06/15 07:40:33;;;;;;;11.20;10.15;;;;;;;30.56;25.45;100738.00;5023254;28;98049;-83
2022/06/15 07:42:58;;;;;;;10.65;9.88;;;;;;;30.11;26.02;100740.25;5007748;28;98183;-83
2022/06/15 07:45:25;;;;;;;11.32;10.20;;;;;;;30.52;25.63;100732.09;5028625;28;96883;-84
2022/06/15 07:50:40;;;;;;;10.48;9.77;;;;;;;30.19;25.14;100736.66;5033536;28;97862;-91
2022/06/15 07:53:07;;;;;;;11.05;10.35;;;;;;;30.25;25.16;100727.88;5036678;28;98351;-87
2022/06/15 07:55:37;;;;;;;11.20;10.20;;;;;;;30.63;24.88;100733.59;5035204;27;97343;-87
2022/06/15 07:58:03;;;;;;;12.00;10.80;;;;;;;30.95;24.80;100726.41;5018847;28;97024;-88
2022/06/15 08:00:29;;;;;;;15.13;9.98;;;;;;;31.29;24.64;100734.22;5016035;28;100340;-86
2022/06/15 08:02:55;;;;;;;11.07;10.13;;;;;;;31.51;23.59;100716.34;5035423;28;97545;-92
2022/06/15 08:05:21;;;;;;;11.27;10.35;;;;;;;31.53;24.45;100725.13;5018993;28;96926;-91
2022/06/15 08:07:49;;;;;;;11.65;10.57;;;;;;;31.98;23.69;100726.22;5018389;28;96889;-92
2022/06/15 08:10:16;;;;;;;10.73;9.88;;;;;;;32.13;23.86;100713.50;5002068;28;101274;-92
2022/06/15 08:12:43;;;;;;;11.60;10.68;;;;;;;32.26;23.00;100707.47;5002698;28;100798;-91
2022/06/15 08:15:10;;;;;;;11.73;10.68;;;;;;;31.97;23.42;100717.22;5017046;28;97377;-91
2022/06/15 08:17:43;;;;;;;11.13;10.23;;;;;;;31.79;23.66;100705.78;5010695;28;96956;-87
2022/06/15 08:20:13;;;;;;;11.52;10.52;;;;;;;32.39;23.64;100723.13;4999753;28;100890;-91
2022/06/15 08:22:42;;;;;;;11.48;10.32;;;;;;;32.99;23.52;100708.59;5031249;28;98391;-92
2022/06/15 08:25:13;;;;;;;11.45;10.45;;;;;;;33.06;22.46;100714.09;5011366;28;96880;-88
2022/06/15 08:27:38;;;;;;;10.73;9.88;;;;;;;32.93;22.29;100706.59;4998689;28;97276;-89
2022/06/15 08:30:08;;;;;;;11.20;10.30;;;;;;;33.10;22.86;100709.94;4998166;28;101398;-85
2022/06/15 08:32:33;;;;;;;11.30;10.52;;;;;;;33.27;22.37;100711.41;5007769;28;101243;-86
2022/06/15 08:34:59;;;;;;;11.07;10.10;;;;;;;33.29;22.27;100701.19;4998772;28;97055;-85
2022/06/15 08:37:25;;;;;;;11.48;10.75;;;;;;;33.41;22.01;100698.81;5012306;28;97370;-85
2022/06/15 08:39:50;;;;;;;10.90;10.00;;;;;;;33.28;22.29;100694.09;5020146;28;100991;-85
2022/06/15 08:43:02;;;;;;;12.35;10.35;;;;;;;33.76;21.07;100697.09;5019549;28;97671;-84
2022/06/15 08:45:38;;;;;;;10.05;9.35;;;;;;;33.37;21.70;100700.25;4971109;28;96925;-86
2022/06/15 08:48:06;;;;;;;10.73;9.93;;;;;;;33.10;22.44;100689.06;5010616;28;96883;-84
2022/06/15 08:50:33;;;;;;;11.02;9.75;;;;;;;33.73;21.96;100689.34;5031019;28;98606;-86
2022/06/15 08:53:21;;;;;;;11.60;9.65;;;;;;;33.24;22.31;100687.31;5002646;28;97615;-83
2022/06/15 08:55:59;;;;;;;10.32;9.63;;;;;;;33.10;22.48;100690.91;5005032;28;98597;-85
2022/06/15 08:58:38;;;;;;;10.23;9.27;;;;;;;32.86;23.13;100690.16;4997983;28;97284;-85
2022/06/15 09:01:50;;;;;;;10.10;9.20;;;;;;;32.42;23.31;100688.28;4996631;28;101365;-84
2022/06/15 09:04:30;;;;;;;9.70;8.90;;;;;;;32.23;23.48;100688.81;4952068;28;101071;-84
2022/06/15 09:07:11;;;;;;;9.85;8.95;;;;;;;31.96;22.74;100695.69;4989551;28;96851;-86
2022/06/15 09:09:57;;;;;;;9.15;8.45;;;;;;;30.72;23.76;100674.81;5029353;28;96815;-85
2022/06/15 09:15:33;;;;;;;8.73;7.82;;;;;;;29.80;25.21;100693.22;5027638;28;101835;-83
2022/06/15 09:18:23;;;;;;;8.95;7.97;;;;;;;29.55;25.19;100676.91;5026403;28;96859;-85
2022/06/15 09:21:04;;;;;;;10.50;9.02;;;;;;;29.39;26.20;100693.13;5033016;28;96902;-85
2022/06/15 09:23:29;;;;;;;9.25;8.45;;;;;;;29.09;26.23;100700.81;5010973;28;101746;-85
2022/06/15 09:26:12;;;;;;;9.15;8.38;;;;;;;28.74;26.73;100686.44;5012360;28;99663;-85
2022/06/15 09:28:48;;;;;;;9.15;8.27;;;;;;;28.58;26.87;100676.41;4989849;28;96822;-85
2022/06/15 09:31:40;;;;;;;8.88;8.07;;;;;;;28.86;26.91;100689.72;5011894;28;96861;-83
2022/06/15 09:34:09;;;;;;;8.65;7.95;;;;;;;28.69;26.46;100687.94;5010650;28;101523;-85
2022/06/15 09:36:48;;;;;;;8.75;8.10;;;;;;;28.60;26.75;100681.66;5009522;28;101761;-84
2022/06/15 09:39:13;;;;;;;8.80;8.20;;;;;;;28.24;26.43;100681.72;5008583;28;97334;-83
2022/06/15 09:41:51;;;;;;;8.43;7.82;;;;;;;27.67;27.24;100686.63;4996649;28;97341;-84
2022/06/15 09:44:30;;;;;;;8.82;8.02;;;;;;;27.85;28.01;100670.47;5027934;28;97955;-85
2022/06/15 09:47:17;;;;;;;8.50;7.90;;;;;;;27.84;28.17;100666.94;5011509;28;97728;-85
2022/06/15 09:50:04;;;;;;;8.73;8.00;;;;;;;28.05;26.96;100668.44;5012182;28;96892;-85
2022/06/15 09:52:39;;;;;;;8.52;7.78;;;;;;;27.70;27.79;100670.16;5030470;28;97161;-85
2022/06/15 09:55:22;;;;;;;8.88;8.07;;;;;;;27.59;28.48;100659.59;5026095;28;97569;-85
2022/06/15 09:57:49;;;;;;;9.43;8.48;;;;;;;27.59;28.65;100646.09;5011294;28;98427;-86
2022/06/15 10:00:15;;;;;;;8.20;7.47;;;;;;;27.58;28.48;100653.34;5008487;28;96851;-83
2022/06/15 10:02:46;;;;;;;9.07;8.15;;;;;;;27.45;28.16;100653.72;5028495;28;97114;-86
2022/06/15 10:05:21;;;;;;;7.90;7.30;;;;;;;27.39;27.41;100659.72;4994274;28;100133;-87
2022/06/15 10:07:47;;;;;;;8.18;7.43;;;;;;;27.18;28.48;100654.63;5029483;28;97419;-85
2022/06/15 10:10:23;;;;;;;8.05;7.35;;;;;;;26.97;28.74;100637.88;5024497;28;96854;-85
2022/06/15 10:12:58;;;;;;;8.00;7.28;;;;;;;26.95;28.88;100664.09;5025425;28;97002;-85
2022/06/15 10:15:29;;;;;;;7.57;7.00;;;;;;;26.90;29.01;100652.91;4995796;28;100588;-84
2022/06/15 10:17:58;;;;;;;7.97;7.30;;;;;;;26.74;28.68;100651.72;5028512;28;97886;-85
2022/06/15 10:20:32;;;;;;;8.70;7.65;;;;;;;26.49;29.13;100660.44;5012571;28;97512;-85
2022/06/15 10:22:59;;;;;;;9.77;7.90;;;;;;;25.87;29.29;100614.31;5007887;28;96894;-85
2022/06/15 10:25:28;;;;;;;7.22;6.53;;;;;;;25.75;29.89;100633.25;5005883;28;101107;-85
2022/06/15 10:28:12;;;;;;;7.93;7.25;;;;;;;25.43;30.54;100646.13;5012727;28;97377;-85
2022/06/15 10:30:49;;;;;;;8.40;7.50;;;;;;;25.39;30.40;100656.28;5018135;28;96872;-85
2022/06/15 10:33:19;;;;;;;9.05;8.35;;;;;;;25.20;31.01;100657.13;5011565;28;97853;-81
2022/06/15 10:35:56;;;;;;;8.55;7.78;;;;;;;25.17;31.07;100657.41;5008528;28;101233;-85
2022/06/15 10:38:23;;;;;;;5.97;5.07;;;;;;;25.01;30.70;100657.03;5007607;28;98146;-84
2022/06/15 10:43:45;;;;;;;5.80;5.22;;;;;;;24.41;31.78;100635.47;5028989;28;97259;-84
2022/06/15 10:46:10;;;;;;;8.20;6.50;;;;;;;24.61;31.82;100652.53;5011232;28;100878;-84
2022/06/15 10:48:42;;;;;;;7.20;6.50;;;;;;;24.68;32.58;100644.78;5038152;27;101599;-85
2022/06/15 10:51:11;;;;;;;9.05;6.63;;;;;;;24.66;33.17;100623.44;5027767;28;96830;-85
2022/06/15 10:53:41;;;;;;;8.48;6.63;;;;;;;24.92;31.13;100637.22;5007499;28;97255;-84
2022/06/15 11:02:06;;;;;;;8.20;7.43;;;;;;;24.81;32.71;100635.53;5027000;28;97647;-84
2022/06/15 11:02:26;;;;;;;7.40;6.80;;;;;;;24.93;31.86;100632.69;5026054;28;97303;-83
2022/06/15 11:04:56;;;;;;;8.80;6.68;;;;;;;24.83;31.88;100606.69;5027591;28;96782;-85
2022/06/15 11:07:22;;;;;;;8.50;7.38;;;;;;;25.09;31.39;100624.97;5028205;28;97466;-85
2022/06/15 11:09:53;;;;;;;7.22;6.63;;;;;;;24.88;31.54;100617.03;5030791;28;97363;-84
2022/06/15 11:12:33;;;;;;;10.13;7.78;;;;;;;24.68;32.16;100618.78;5021871;28;96846;-83
2022/06/15 11:15:14;;;;;;;7.03;6.43;;;;;;;24.66;31.79;100619.91;5025109;28;97270;-85
2022/06/15 11:18:06;;;;;;;7.90;6.50;;;;;;;24.43;32.35;100612.03;5026702;28;101572;-86
2022/06/15 11:20:43;;;;;;;7.45;6.70;;;;;;;24.59;32.17;100619.63;5028188;28;98217;-84
2022/06/15 11:23:30;;;;;;;7.07;6.57;;;;;;;24.65;32.63;100612.84;5029265;28;96742;-84
2022/06/15 11:29:09;;;;;;;6.78;6.28;;;;;;;24.73;32.43;100611.19;5027439;28;98288;-84
2022/06/15 11:31:37;;;;;;;6.97;6.38;;;;;;;24.69;32.65;100607.06;5009090;28;97738;-84
2022/06/15 11:34:07;;;;;;;6.95;6.35;;;;;;;24.73;32.68;100595.09;5027613;28;97432;-84
2022/06/15 11:36:55;;;;;;;7.10;6.60;;;;;;;24.55;31.31;100597.56;5025171;28;96913;-85
2022/06/15 11:39:23;;;;;;;8.55;7.05;;;;;;;24.54;31.33;100603.06;5000224;28;101205;-83
2022/06/15 11:41:53;;;;;;;7.32;6.72;;;;;;;24.66;31.98;100607.34;5005403;28;101053;-85
2022/06/15 11:44:27;;;;;;;7.43;6.30;;;;;;;24.78;31.15;100608.06;4992491;28;97431;-84
2022/06/15 11:47:02;;;;;;;7.47;6.88;;;;;;;24.76;31.47;100607.38;4996612;28;98370;-86
2022/06/15 11:49:39;;;;;;;6.85;6.35;;;;;;;24.78;31.83;100603.59;5021273;28;101260;-85
2022/06/15 11:52:41;;;;;;;7.40;6.43;;;;;;;24.69;31.52;100587.44;5023663;28;97979;-85